Terminal Aerodrome Forecast
Issued by NWS Jacksonville, FL

Home | Current Version | Previous Version | Text Only | Print | Product List | Glossary On
Versions: 1 2 3 4 5 6 7 8 9 10 11 12 13 14 15 16 17 18 19 20 21 22 23 24
045
FTUS42 KJAX 170520
TAFJAX
TAF
KJAX 170520Z 1706/1806 26004KT P6SM FEW250
     FM171500 28006KT P6SM SCT030 SCT250
     FM171800 21008KT P6SM VCTS BKN035CB BKN100
     FM180000 22004KT P6SM SCT050 SCT100 BKN200=

USA.gov is the U.S. government's official web portal to all federal, state and local government web resources and services.